Time;durP1;ratioP1;P1;durP2;ratioP2;P2;SDS_P1;SDS_P2;PMS_P1;PMS_P2;Temp;Humidity;BMP_temperature;BMP_pressure;BME280_temperature;BME280_humidity;BME280_pressure;Samples;Min_cycle;Max_cycle;Signal;HPM_P1;HPM_P2
2021/12/11 00:00:25;;;;;;;;;;;;;;;1.20;90.91;95525.59;30001;983;1877;-67
2021/12/11 00:00:58;;;;;;;;;;;;;;;1.17;90.63;95523.47;30001;983;1881;-69
2021/12/11 00:01:38;;;;;;;;;;;;;;;1.14;90.59;95529.34;30001;982;1864;-69
2021/12/11 00:02:15;;;;;;;;;;;;;;;1.10;90.71;95522.91;30001;982;1873;-71
2021/12/11 00:02:54;;;;;;;;;;;;;;;1.09;90.83;95523.19;30001;982;1878;-64
2021/12/11 00:03:26;;;;;;;;;;;;;;;1.10;91.02;95530.94;30001;982;1882;-69
2021/12/11 00:04:00;;;;;;;;;;;;;;;1.07;90.94;95526.13;30001;980;1876;-69
2021/12/11 00:04:34;;;;;;;;;;;;;;;1.04;90.94;95529.31;30001;983;1881;-68
2021/12/11 00:05:05;;;;;;;;;;;;;;;1.02;91.17;95523.47;30001;983;1877;-66
2021/12/11 00:05:37;;;;;;;;;;;;;;;1.02;91.20;95526.16;30001;983;1881;-66
2021/12/11 00:06:09;;;;;;;;;;;;;;;1.00;91.10;95528.28;30001;983;1864;-70
2021/12/11 00:06:45;;;;;;;;;;;;;;;1.00;91.39;95531.75;30001;983;1873;-70
2021/12/11 00:07:17;;;;;;;;;;;;;;;1.01;91.39;95532.56;30001;983;1877;-69
2021/12/11 00:07:48;;;;;;;;;;;;;;;1.02;91.37;95534.16;30001;982;1881;-69
2021/12/11 00:08:21;;;;;;;;;;;;;;;1.07;91.41;95531.47;30001;982;1877;-68
2021/12/11 00:08:54;;;;;;;;;;;;;;;1.07;91.32;95530.66;30001;982;1881;-69
2021/12/11 00:09:30;;;;;;;;;;;;;;;1.05;91.56;95528.25;30001;982;1877;-69
2021/12/11 00:10:09;;;;;;;;;;;;;;;1.05;91.26;95530.94;30001;982;1882;-57
2021/12/11 00:10:43;;;;;;;;;;;;;;;1.03;91.60;95534.97;30001;982;1877;-68
2021/12/11 00:11:19;;;;;;;;;;;;;;;1.02;91.63;95539.50;30001;983;1868;-68
2021/12/11 00:12:13;;;;;;;;;;;;;;;1.05;91.43;95532.78;30001;983;1868;-70
2021/12/11 00:12:49;;;;;;;;;;;;;;;1.06;91.66;95537.88;30001;983;1877;-68
2021/12/11 00:13:23;;;;;;;;;;;;;;;1.05;91.31;95544.28;30001;983;1877;-58
2021/12/11 00:13:55;;;;;;;;;;;;;;;1.06;91.58;95540.53;30001;983;1881;-64
2021/12/11 00:14:30;;;;;;;;;;;;;;;1.06;91.63;95537.88;30001;983;1877;-70
2021/12/11 00:15:06;;;;;;;;;;;;;;;1.07;91.39;95547.50;30001;983;1881;-71
2021/12/11 00:15:40;;;;;;;;;;;;;;;1.15;91.12;95544.31;30001;982;1864;-68
2021/12/11 00:16:14;;;;;;;;;;;;;;;1.16;91.23;95545.91;30001;982;1873;-67
2021/12/11 00:16:45;;;;;;;;;;;;;;;1.17;90.70;95547.50;30001;982;1877;-70
2021/12/11 00:17:22;;;;;;;;;;;;;;;1.17;91.07;95552.84;30001;982;1882;-65
2021/12/11 00:18:00;;;;;;;;;;;;;;;1.20;90.57;95551.53;30001;982;1877;-67
2021/12/11 00:18:32;;;;;;;;;;;;;;;1.15;90.58;95552.31;30001;982;1882;-67
2021/12/11 00:19:06;;;;;;;;;;;;;;;1.15;90.86;95552.31;30001;983;1877;-68
2021/12/11 00:19:39;;;;;;;;;;;;;;;1.13;90.84;95557.13;30001;975;1888;-68
2021/12/11 00:20:15;;;;;;;;;;;;;;;1.12;90.76;95552.84;30001;983;1868;-69
2021/12/11 00:21:09;;;;;;;;;;;;;;;1.15;90.91;95555.00;30001;983;1881;-66
2021/12/11 00:21:40;;;;;;;;;;;;;;;1.14;91.09;95558.72;30001;983;1873;-68
2021/12/11 00:22:14;;;;;;;;;;;;;;;1.13;91.10;95557.13;30001;983;1868;-72
2021/12/11 00:22:45;;;;;;;;;;;;;;;1.22;90.71;95557.41;30001;983;1868;-68
2021/12/11 00:23:21;;;;;;;;;;;;;;;1.24;90.49;95553.41;30001;982;1881;-68
2021/12/11 00:23:58;;;;;;;;;;;;;;;1.31;90.55;95559.28;30001;982;1864;-74
2021/12/11 00:24:31;;;;;;;;;;;;;;;1.34;90.06;95558.75;30001;982;1873;-68
2021/12/11 00:25:09;;;;;;;;;;;;;;;1.31;90.04;95559.28;30001;982;1864;-69
2021/12/11 00:25:41;;;;;;;;;;;;;;;1.31;90.02;95556.63;30001;982;1873;-66
2021/12/11 00:26:12;;;;;;;;;;;;;;;1.26;89.83;95561.97;30001;982;1878;-68
2021/12/11 00:26:47;;;;;;;;;;;;;;;1.20;90.21;95564.87;30001;983;1881;-66
2021/12/11 00:27:21;;;;;;;;;;;;;;;1.17;90.20;95574.22;30001;983;1877;-63
2021/12/11 00:27:59;;;;;;;;;;;;;;;1.21;90.40;95564.63;30001;983;1881;-72
2021/12/11 00:28:29;;;;;;;;;;;;;;;1.23;90.47;95565.16;30001;983;1877;-68
2021/12/11 00:29:01;;;;;;;;;;;;;;;1.31;90.36;95569.97;30001;983;1881;-69
2021/12/11 00:29:32;;;;;;;;;;;;;;;1.39;89.66;95567.84;30001;983;1877;-72
2021/12/11 00:30:06;;;;;;;;;;;;;;;1.46;89.48;95571.03;30001;983;1868;-72
2021/12/11 00:30:40;;;;;;;;;;;;;;;1.54;88.75;95571.31;30001;982;1869;-68
2021/12/11 00:31:10;;;;;;;;;;;;;;;1.48;88.80;95566.22;30001;982;1881;-68
2021/12/11 00:31:47;;;;;;;;;;;;;;;1.43;88.74;95566.22;30001;982;1877;-69
2021/12/11 00:32:26;;;;;;;;;;;;;;;1.36;89.09;95563.03;30001;982;1882;-68
2021/12/11 00:32:59;;;;;;;;;;;;;;;1.30;89.15;95576.38;30001;982;1878;-66
2021/12/11 00:33:32;;;;;;;;;;;;;;;1.30;89.82;95584.41;30001;982;1869;-74
2021/12/11 00:34:09;;;;;;;;;;;;;;;1.34;89.60;95574.00;30001;983;1868;-57
2021/12/11 00:34:46;;;;;;;;;;;;;;;1.29;89.91;95574.78;30001;983;1881;-67
2021/12/11 00:35:20;;;;;;;;;;;;;;;1.24;89.74;95580.13;30001;983;1877;-67
2021/12/11 00:35:56;;;;;;;;;;;;;;;1.20;90.20;95583.59;30001;983;1868;-67
2021/12/11 00:36:32;;;;;;;;;;;;;;;1.19;90.19;95582.78;30001;987;1868;-70
2021/12/11 00:37:05;;;;;;;;;;;;;;;1.17;90.46;95582.25;30001;983;1881;-69
2021/12/11 00:37:36;;;;;;;;;;;;;;;1.16;90.55;95582.50;30001;983;1877;-68
2021/12/11 00:38:10;;;;;;;;;;;;;;;1.18;90.50;95591.06;30001;982;1882;-68
2021/12/11 00:38:41;;;;;;;;;;;;;;;1.18;90.47;95586.53;30001;962;1897;-69
2021/12/11 00:39:14;;;;;;;;;;;;;;;1.23;90.63;95583.84;30001;982;1882;-68
2021/12/11 00:39:49;;;;;;;;;;;;;;;1.23;90.82;95589.19;30001;982;1878;-69
2021/12/11 00:40:25;;;;;;;;;;;;;;;1.21;90.52;95596.69;30001;982;1882;-67
2021/12/11 00:40:56;;;;;;;;;;;;;;;1.20;90.50;95595.06;30001;983;1863;-73
2021/12/11 00:41:27;;;;;;;;;;;;;;;1.24;90.50;95590.81;30001;983;1872;-70
2021/12/11 00:42:00;;;;;;;;;;;;;;;1.29;90.44;95590.81;30001;983;1877;-75
2021/12/11 00:42:34;;;;;;;;;;;;;;;1.43;89.46;95595.63;30001;983;1881;-68
2021/12/11 00:43:07;;;;;;;;;;;;;;;1.41;89.47;95600.44;30001;983;1864;-69
2021/12/11 00:43:40;;;;;;;;;;;;;;;1.41;89.20;95590.53;30001;983;1872;-69
2021/12/11 00:44:11;;;;;;;;;;;;;;;1.39;89.53;95597.25;30001;983;1864;-69
2021/12/11 00:44:44;;;;;;;;;;;;;;;1.33;89.57;95594.56;30001;983;1873;-68
2021/12/11 00:45:18;;;;;;;;;;;;;;;1.29;89.60;95604.19;30001;983;1877;-68
2021/12/11 00:45:49;;;;;;;;;;;;;;;1.27;89.67;95606.31;30001;982;1882;-68
2021/12/11 00:46:26;;;;;;;;;;;;;;;1.24;89.89;95606.84;30001;982;1877;-68
2021/12/11 00:47:26;;;;;;;;;;;;;;;1.23;89.98;95615.94;30001;982;1882;-69
2021/12/11 00:48:00;;;;;;;;;;;;;;;1.29;90.44;95612.19;30001;982;1873;-63
2021/12/11 00:48:31;;;;;;;;;;;;;;;1.30;90.36;95611.13;30001;983;1867;-68
2021/12/11 00:49:10;;;;;;;;;;;;;;;1.28;90.21;95607.91;30001;983;1868;-69
2021/12/11 00:49:51;;;;;;;;;;;;;;;1.24;90.38;95609.50;30001;983;1881;-68
2021/12/11 00:50:26;;;;;;;;;;;;;;;1.22;90.43;95614.31;30001;983;1877;-70
2021/12/11 00:51:11;;;;;;;;;;;;;;;1.29;90.21;95614.88;30001;983;1881;-70
2021/12/11 00:51:51;;;;;;;;;;;;;;;1.35;89.73;95610.34;30001;983;1877;-57
2021/12/11 00:52:26;;;;;;;;;;;;;;;1.34;89.71;95609.53;30001;983;1881;-68
2021/12/11 00:53:04;;;;;;;;;;;;;;;1.32;89.55;95611.66;30001;983;1877;-68
2021/12/11 00:53:46;;;;;;;;;;;;;;;1.28;89.99;95623.94;30001;982;1869;-69
2021/12/11 00:54:17;;;;;;;;;;;;;;;1.25;90.00;95613.78;30001;982;1868;-69
2021/12/11 00:54:48;;;;;;;;;;;;;;;1.24;90.15;95617.53;30001;982;1882;-68
2021/12/11 00:55:30;;;;;;;;;;;;;;;1.22;90.25;95624.19;30001;984;1878;-70
2021/12/11 00:56:04;;;;;;;;;;;;;;;1.19;90.60;95614.84;30001;983;1881;-69
2021/12/11 00:56:36;;;;;;;;;;;;;;;1.16;90.82;95618.03;30001;983;1863;-69
2021/12/11 00:57:09;;;;;;;;;;;;;;;1.14;91.05;95625.50;30001;983;1859;-57
2021/12/11 00:57:40;;;;;;;;;;;;;;;1.12;90.89;95619.63;30001;983;1877;-67
2021/12/11 00:58:17;;;;;;;;;;;;;;;1.17;91.15;95619.66;30001;983;1881;-68
2021/12/11 00:58:51;;;;;;;;;;;;;;;1.17;90.83;95622.31;30001;983;1877;-56
2021/12/11 00:59:22;;;;;;;;;;;;;;;1.16;90.68;95625.25;30001;983;1881;-69
2021/12/11 01:00:09;;;;;;;;;;;;;;;1.18;90.88;95629.28;30001;983;1877;-68
2021/12/11 01:00:55;;;;;;;;;;;;;;;1.28;90.79;95626.63;30001;982;1869;-56
2021/12/11 01:01:31;;;;;;;;;;;;;;;1.30;90.45;95629.84;30001;982;1869;-66
2021/12/11 01:02:03;;;;;;;;;;;;;;;1.27;90.37;95630.38;30001;982;1882;-69
2021/12/11 01:02:34;;;;;;;;;;;;;;;1.25;90.16;95629.03;30001;982;1878;-68
2021/12/11 01:03:05;;;;;;;;;;;;;;;1.27;90.44;95633.03;30001;982;1882;-70
2021/12/11 01:03:45;;;;;;;;;;;;;;;1.29;90.27;95632.78;30001;983;1877;-69
2021/12/11 01:04:19;;;;;;;;;;;;;;;1.28;90.40;95634.63;30001;983;1881;-69
2021/12/11 01:04:51;;;;;;;;;;;;;;;1.31;90.37;95634.13;30001;983;1877;-68
2021/12/11 01:05:23;;;;;;;;;;;;;;;1.34;89.95;95641.59;30001;983;1881;-70
2021/12/11 01:05:55;;;;;;;;;;;;;;;1.31;90.12;95634.13;30001;983;1864;-69
2021/12/11 01:06:39;;;;;;;;;;;;;;;1.33;90.28;95634.66;30001;983;1873;-66
2021/12/11 01:07:17;;;;;;;;;;;;;;;1.32;89.83;95640.25;30001;983;1864;-69
2021/12/11 01:07:48;;;;;;;;;;;;;;;1.27;90.21;95632.22;30001;983;1873;-68
2021/12/11 01:08:25;;;;;;;;;;;;;;;1.25;90.32;95639.72;30001;982;1877;-67
2021/12/11 01:09:07;;;;;;;;;;;;;;;1.28;90.38;95639.97;30001;982;1882;-74
2021/12/11 01:09:41;;;;;;;;;;;;;;;1.41;89.71;95641.31;30001;982;1877;-66
2021/12/11 01:10:22;;;;;;;;;;;;;;;1.40;89.71;95637.03;30001;983;1881;-56
2021/12/11 01:10:58;;;;;;;;;;;;;;;1.36;89.41;95637.88;30001;983;1877;-67
2021/12/11 01:11:36;;;;;;;;;;;;;;;1.30;89.92;95637.84;30001;983;1868;-70
2021/12/11 01:12:13;;;;;;;;;;;;;;;1.30;89.95;95640.53;30001;983;1868;-70
2021/12/11 01:12:53;;;;;;;;;;;;;;;1.29;89.91;95640.78;30001;983;1881;-69
2021/12/11 01:13:28;;;;;;;;;;;;;;;1.29;89.92;95646.12;30001;983;1877;-61
2021/12/11 01:14:12;;;;;;;;;;;;;;;1.39;90.06;95645.34;30001;983;1881;-74
2021/12/11 01:14:52;;;;;;;;;;;;;;;1.47;89.30;95653.62;30001;983;1877;-69
2021/12/11 01:15:35;;;;;;;;;;;;;;;1.43;89.26;95646.41;30001;982;1882;-70
2021/12/11 01:16:11;;;;;;;;;;;;;;;1.40;89.43;95652.28;30001;982;1877;-68
2021/12/11 01:16:49;;;;;;;;;;;;;;;1.38;89.61;95649.09;30001;982;1869;-68
2021/12/11 01:17:57;;;;;;;;;;;;;;;1.33;89.77;95649.87;30001;982;1869;-69
2021/12/11 01:18:39;;;;;;;;;;;;;;;1.28;89.97;95660.56;30001;983;1881;-73
2021/12/11 01:19:17;;;;;;;;;;;;;;;1.31;90.06;95655.50;30001;983;1877;-69
2021/12/11 01:19:51;;;;;;;;;;;;;;;1.29;89.85;95657.63;30001;983;1881;-69
2021/12/11 01:20:32;;;;;;;;;;;;;;;1.28;90.01;95665.91;30001;983;1845;-68
2021/12/11 01:21:14;;;;;;;;;;;;;;;1.24;90.05;95660.28;30001;983;1881;-69
2021/12/11 01:21:56;;;;;;;;;;;;;;;1.24;90.55;95665.63;30001;983;1864;-70
2021/12/11 01:22:34;;;;;;;;;;;;;;;1.24;90.38;95665.63;30001;982;1873;-68
2021/12/11 01:23:16;;;;;;;;;;;;;;;1.23;90.56;95673.91;30001;982;1877;-70
2021/12/11 01:24:08;;;;;;;;;;;;;;;1.32;90.76;95667.78;30001;982;1882;-75
2021/12/11 01:24:45;;;;;;;;;;;;;;;1.31;90.12;95668.84;30001;982;1878;-71
2021/12/11 01:25:24;;;;;;;;;;;;;;;1.30;90.07;95675.25;30001;983;1881;-70
2021/12/11 01:25:55;;;;;;;;;;;;;;;1.28;90.43;95677.41;30001;983;1864;-68
2021/12/11 01:26:26;;;;;;;;;;;;;;;1.26;90.12;95673.38;30001;983;1872;-70
2021/12/11 01:27:00;;;;;;;;;;;;;;;1.25;90.57;95677.91;30001;983;1877;-70
2021/12/11 01:27:31;;;;;;;;;;;;;;;1.25;90.27;95677.13;30001;983;1881;-55
2021/12/11 01:28:02;;;;;;;;;;;;;;;1.23;90.30;95680.06;30001;983;1877;-68
2021/12/11 01:28:34;;;;;;;;;;;;;;;1.23;90.55;95674.72;30001;983;1881;-69
2021/12/11 01:29:06;;;;;;;;;;;;;;;1.22;90.55;95678.44;30001;983;1877;-71
2021/12/11 01:29:37;;;;;;;;;;;;;;;1.24;91.03;95679.00;30001;983;1881;-68
2021/12/11 01:30:10;;;;;;;;;;;;;;;1.24;90.77;95681.66;30001;982;1877;-69
2021/12/11 01:30:42;;;;;;;;;;;;;;;1.24;90.86;95681.66;30001;982;1882;-69
2021/12/11 01:31:15;;;;;;;;;;;;;;;1.23;90.98;95685.41;30001;982;1864;-55
2021/12/11 01:31:47;;;;;;;;;;;;;;;1.22;91.02;95678.44;30001;982;1873;-69
2021/12/11 01:32:18;;;;;;;;;;;;;;;1.22;90.95;95686.47;30001;982;1877;-69
2021/12/11 01:32:49;;;;;;;;;;;;;;;1.21;91.27;95687.53;30001;983;1868;-69
2021/12/11 01:33:20;;;;;;;;;;;;;;;1.20;91.19;95679.78;30001;983;1868;-70
2021/12/11 01:33:52;;;;;;;;;;;;;;;1.20;91.24;95685.91;30001;983;1881;-69
2021/12/11 01:34:24;;;;;;;;;;;;;;;1.19;91.21;95695.00;30001;983;1877;-68
2021/12/11 01:34:57;;;;;;;;;;;;;;;1.19;91.62;95695.00;30001;983;1881;-70
2021/12/11 01:35:29;;;;;;;;;;;;;;;1.19;91.40;95697.66;30001;983;1877;-68
2021/12/11 01:35:59;;;;;;;;;;;;;;;1.17;91.85;95697.13;30001;983;1881;-68
2021/12/11 01:36:31;;;;;;;;;;;;;;;1.18;91.55;95695.25;30001;983;1864;-69
2021/12/11 01:37:04;;;;;;;;;;;;;;;1.18;91.69;95697.94;30001;983;1873;-68
2021/12/11 01:37:35;;;;;;;;;;;;;;;1.17;91.78;95697.13;30001;982;1877;-70
2021/12/11 01:38:20;;;;;;;;;;;;;;;1.19;91.81;95695.00;30001;982;1881;-69
2021/12/11 01:38:58;;;;;;;;;;;;;;;1.19;92.19;95711.03;30001;982;1877;-70
2021/12/11 01:39:32;;;;;;;;;;;;;;;1.20;91.99;95704.63;30001;982;1869;-70
2021/12/11 01:40:05;;;;;;;;;;;;;;;1.21;91.93;95703.56;30001;983;1859;-70
2021/12/11 01:40:36;;;;;;;;;;;;;;;1.21;91.96;95698.22;30001;983;1885;-71
2021/12/11 01:41:12;;;;;;;;;;;;;;;1.23;92.01;95719.31;30001;983;1881;-71
2021/12/11 01:41:44;;;;;;;;;;;;;;;1.21;92.29;95719.59;30001;983;1872;-69
2021/12/11 01:42:20;;;;;;;;;;;;;;;1.22;91.95;95721.19;30001;983;1859;-55
2021/12/11 01:42:52;;;;;;;;;;;;;;;1.28;92.13;95725.50;30001;983;1886;-56
2021/12/11 01:43:25;;;;;;;;;;;;;;;1.33;91.85;95716.69;30001;983;1881;-69
2021/12/11 01:43:57;;;;;;;;;;;;;;;1.33;91.63;95717.50;30001;983;1886;-69
2021/12/11 01:44:30;;;;;;;;;;;;;;;1.32;91.28;95720.44;30001;982;1882;-57
2021/12/11 01:45:04;;;;;;;;;;;;;;;1.31;91.46;95718.81;30001;982;1873;-56
2021/12/11 01:45:36;;;;;;;;;;;;;;;1.28;91.33;95725.50;30001;982;1873;-70
2021/12/11 01:46:08;;;;;;;;;;;;;;;1.26;91.75;95722.28;30001;982;1886;-69
2021/12/11 01:46:39;;;;;;;;;;;;;;;1.23;91.89;95730.81;30001;982;1882;-68
2021/12/11 01:47:12;;;;;;;;;;;;;;;1.18;91.88;95725.44;30001;982;1886;-69
2021/12/11 01:47:45;;;;;;;;;;;;;;;1.14;91.90;95728.91;30001;983;1867;-70
2021/12/11 01:48:21;;;;;;;;;;;;;;;1.11;92.12;95730.22;30001;983;1876;-70
2021/12/11 01:48:56;;;;;;;;;;;;;;;1.08;92.18;95738.75;30001;983;1880;-71
2021/12/11 01:49:28;;;;;;;;;;;;;;;1.04;92.19;95728.88;30001;983;1885;-70
2021/12/11 01:50:19;;;;;;;;;;;;;;;1.00;92.29;95733.94;30001;983;1881;-69
2021/12/11 01:50:58;;;;;;;;;;;;;;;0.97;92.55;95740.59;30001;983;1881;-70
2021/12/11 01:51:35;;;;;;;;;;;;;;;0.98;92.49;95741.41;30001;983;1868;-70
2021/12/11 01:52:14;;;;;;;;;;;;;;;1.01;92.80;95740.91;30001;982;1877;-72
2021/12/11 01:52:47;;;;;;;;;;;;;;;1.01;92.91;95738.22;30001;982;1882;-69
2021/12/11 01:53:24;;;;;;;;;;;;;;;1.02;92.80;95745.16;30001;982;1886;-70
2021/12/11 01:54:12;;;;;;;;;;;;;;;1.00;92.54;95740.09;30001;982;1868;-70
2021/12/11 01:54:45;;;;;;;;;;;;;;;0.98;92.81;95750.22;30001;982;1878;-70
2021/12/11 01:55:26;;;;;;;;;;;;;;;0.98;92.65;95749.44;30001;983;1868;-70
2021/12/11 01:56:02;;;;;;;;;;;;;;;0.98;92.76;95752.09;30001;983;1877;-70
2021/12/11 01:56:34;;;;;;;;;;;;;;;0.96;92.71;95749.69;30001;983;1881;-70
2021/12/11 01:57:11;;;;;;;;;;;;;;;0.96;92.73;95748.87;30001;983;1886;-70
2021/12/11 01:57:47;;;;;;;;;;;;;;;0.96;92.85;95754.22;30001;983;1881;-71
2021/12/11 01:58:23;;;;;;;;;;;;;;;0.95;92.94;95757.94;30001;983;1886;-70
2021/12/11 01:59:02;;;;;;;;;;;;;;;0.90;93.29;95747.25;30001;983;1882;-71
2021/12/11 01:59:34;;;;;;;;;;;;;;;0.86;93.43;95754.16;30001;982;1886;-72
2021/12/11 02:00:16;;;;;;;;;;;;;;;0.85;93.48;95757.88;30001;982;1868;-72
2021/12/11 02:00:51;;;;;;;;;;;;;;;0.84;93.46;95758.94;30001;982;1877;-70
2021/12/11 02:01:24;;;;;;;;;;;;;;;0.81;93.27;95752.25;30001;969;1903;-70
2021/12/11 02:02:04;;;;;;;;;;;;;;;0.77;93.57;95761.03;30001;982;1886;-70
2021/12/11 02:02:37;;;;;;;;;;;;;;;0.74;93.69;95756.22;30001;982;1882;-71
2021/12/11 02:03:13;;;;;;;;;;;;;;;0.72;93.51;95759.16;30001;983;1885;-70
2021/12/11 02:03:44;;;;;;;;;;;;;;;0.72;93.64;95763.69;30001;983;1868;-57
2021/12/11 02:04:16;;;;;;;;;;;;;;;0.71;93.68;95762.06;30001;983;1877;-70
2021/12/11 02:04:49;;;;;;;;;;;;;;;0.71;94.06;95764.75;30001;983;1881;-70
2021/12/11 02:05:22;;;;;;;;;;;;;;;0.71;93.82;95770.87;30001;983;1885;-71
2021/12/11 02:05:53;;;;;;;;;;;;;;;0.69;93.85;95766.88;30001;983;1881;-71
2021/12/11 02:06:28;;;;;;;;;;;;;;;0.69;93.85;95774.91;30001;983;1796;-71
2021/12/11 02:07:07;;;;;;;;;;;;;;;0.69;93.85;95769.56;30001;982;1868;-71
2021/12/11 02:07:41;;;;;;;;;;;;;;;0.66;94.06;95771.69;30001;982;1877;-70
2021/12/11 02:08:14;;;;;;;;;;;;;;;0.68;94.02;95773.28;30001;985;1855;-70
2021/12/11 02:08:45;;;;;;;;;;;;;;;0.65;94.21;95779.94;30001;982;1873;-71
2021/12/11 02:09:30;;;;;;;;;;;;;;;0.65;94.12;95778.09;30001;982;1877;-70
2021/12/11 02:10:02;;;;;;;;;;;;;;;0.64;93.91;95784.47;30001;982;1882;-70
2021/12/11 02:10:38;;;;;;;;;;;;;;;0.62;94.14;95775.94;30001;983;1876;-71
2021/12/11 02:11:12;;;;;;;;;;;;;;;0.59;94.08;95776.44;30001;983;1881;-71
2021/12/11 02:11:44;;;;;;;;;;;;;;;0.59;93.97;95775.62;30001;983;1863;-72
2021/12/11 02:12:20;;;;;;;;;;;;;;;0.58;94.00;95780.16;30001;983;1873;-71
2021/12/11 02:12:51;;;;;;;;;;;;;;;0.60;94.27;95783.38;30001;983;1877;-72
2021/12/11 02:13:36;;;;;;;;;;;;;;;0.60;94.40;95783.38;30001;983;1881;-72
2021/12/11 02:14:08;;;;;;;;;;;;;;;0.61;94.33;95785.00;30001;983;1877;-71
2021/12/11 02:14:44;;;;;;;;;;;;;;;0.61;94.37;95782.31;30001;982;1881;-70
2021/12/11 02:15:18;;;;;;;;;;;;;;;0.61;94.12;95787.66;30001;982;1877;-71
2021/12/11 02:15:52;;;;;;;;;;;;;;;0.62;94.41;95791.94;30001;982;1868;-71
2021/12/11 02:16:32;;;;;;;;;;;;;;;0.63;94.42;95798.09;30001;982;1869;-71
2021/12/11 02:17:04;;;;;;;;;;;;;;;0.65;94.33;95790.62;30001;983;1881;-72
2021/12/11 02:17:39;;;;;;;;;;;;;;;0.64;94.43;95792.50;30001;983;1877;-71
2021/12/11 02:18:22;;;;;;;;;;;;;;;0.65;94.47;95790.62;30001;983;1868;-72
2021/12/11 02:18:58;;;;;;;;;;;;;;;0.65;94.41;95787.97;30001;961;1890;-71
2021/12/11 02:19:33;;;;;;;;;;;;;;;0.64;94.10;95791.69;30001;983;1881;-71
2021/12/11 02:20:06;;;;;;;;;;;;;;;0.63;94.12;95793.56;30001;983;1877;-72
2021/12/11 02:20:41;;;;;;;;;;;;;;;0.63;94.50;95796.22;30001;983;1868;-72
2021/12/11 02:21:32;;;;;;;;;;;;;;;0.64;94.36;95795.16;30001;983;1868;-57
2021/12/11 02:22:07;;;;;;;;;;;;;;;0.65;94.21;95802.09;30001;982;1864;-71
2021/12/11 02:22:42;;;;;;;;;;;;;;;0.65;94.41;95799.44;30001;982;1869;-71
2021/12/11 02:23:13;;;;;;;;;;;;;;;0.65;94.14;95804.78;30001;982;1796;-70
2021/12/11 02:23:45;;;;;;;;;;;;;;;0.65;94.21;95802.09;30001;982;1878;-71
2021/12/11 02:24:20;;;;;;;;;;;;;;;0.64;94.46;95805.84;30001;982;1869;-70
2021/12/11 02:24:54;;;;;;;;;;;;;;;0.63;93.98;95804.22;30001;983;1868;-70
2021/12/11 02:25:30;;;;;;;;;;;;;;;0.60;94.00;95804.75;30001;983;1881;-71
2021/12/11 02:26:06;;;;;;;;;;;;;;;0.60;93.99;95807.41;30001;983;1863;-71
2021/12/11 02:26:39;;;;;;;;;;;;;;;0.61;94.02;95805.53;30001;983;1872;-71
2021/12/11 02:27:15;;;;;;;;;;;;;;;0.59;94.24;95803.13;30001;983;1877;-70
2021/12/11 02:27:48;;;;;;;;;;;;;;;0.59;94.16;95808.47;30001;983;1868;-71
2021/12/11 02:28:24;;;;;;;;;;;;;;;0.60;94.07;95810.06;30001;983;1868;-70
2021/12/11 02:29:08;;;;;;;;;;;;;;;0.62;93.99;95812.50;30001;983;1882;-70
2021/12/11 02:29:44;;;;;;;;;;;;;;;0.62;93.92;95817.84;30001;982;1877;-70
2021/12/11 02:30:25;;;;;;;;;;;;;;;0.61;94.17;95822.38;30001;982;1882;-70
2021/12/11 02:31:05;;;;;;;;;;;;;;;0.61;93.81;95822.38;30001;982;1877;-72
2021/12/11 02:31:39;;;;;;;;;;;;;;;0.66;93.95;95819.75;30001;982;1869;-69
2021/12/11 02:32:18;;;;;;;;;;;;;;;0.66;93.53;95819.75;30001;977;1886;-69
2021/12/11 02:32:51;;;;;;;;;;;;;;;0.69;93.53;95822.97;30001;983;1881;-75
2021/12/11 02:33:28;;;;;;;;;;;;;;;0.77;92.94;95819.78;30001;983;1877;-74
2021/12/11 02:34:10;;;;;;;;;;;;;;;0.83;92.59;95824.09;30001;983;1881;-70
2021/12/11 02:34:47;;;;;;;;;;;;;;;0.81;92.03;95820.88;30001;962;1898;-76
2021/12/11 02:35:26;;;;;;;;;;;;;;;0.86;91.86;95826.25;30001;983;1881;-72
2021/12/11 02:36:09;;;;;;;;;;;;;;;0.94;91.15;95826.59;30001;983;1877;-68
2021/12/11 02:36:57;;;;;;;;;;;;;;;0.94;91.03;95836.47;30001;983;1868;-76
2021/12/11 02:37:39;;;;;;;;;;;;;;;0.90;90.50;95830.03;30001;982;1869;-72
2021/12/11 02:38:25;;;;;;;;;;;;;;;0.90;90.84;95838.84;30001;982;1882;-77
2021/12/11 02:39:22;;;;;;;;;;;;;;;0.92;90.63;95843.94;30001;982;1877;-74
2021/12/11 02:39:55;;;;;;;;;;;;;;;0.93;90.21;95837.53;30001;983;1876;-68
2021/12/11 02:40:32;;;;;;;;;;;;;;;0.93;90.39;95834.84;30001;983;1876;-66
2021/12/11 02:41:10;;;;;;;;;;;;;;;0.94;90.07;95841.81;30001;983;1868;-76
2021/12/11 02:42:03;;;;;;;;;;;;;;;0.93;89.71;95834.84;30001;983;1868;-71
2021/12/11 02:42:39;;;;;;;;;;;;;;;0.86;90.13;95843.09;30001;983;1877;-77
2021/12/11 02:43:33;;;;;;;;;;;;;;;0.88;90.05;95842.84;30001;983;1877;-73
2021/12/11 02:44:08;;;;;;;;;;;;;;;0.84;90.31;95852.41;30001;983;1877;-74
2021/12/11 02:45:02;;;;;;;;;;;;;;;0.80;90.48;95843.31;30001;982;1864;-72
2021/12/11 02:45:36;;;;;;;;;;;;;;;0.76;90.47;95847.53;30001;982;1869;-73
2021/12/11 02:46:11;;;;;;;;;;;;;;;0.75;90.45;95848.59;30001;982;1864;-71
2021/12/11 02:46:46;;;;;;;;;;;;;;;0.71;90.59;95852.84;30001;982;1873;-70
2021/12/11 02:47:23;;;;;;;;;;;;;;;0.65;90.91;95850.16;30001;983;1876;-56
2021/12/11 02:47:59;;;;;;;;;;;;;;;0.64;91.11;95851.22;30001;983;1881;-54
2021/12/11 02:48:36;;;;;;;;;;;;;;;0.63;90.92;95860.28;30001;983;1863;-55
2021/12/11 02:49:10;;;;;;;;;;;;;;;0.62;91.08;95856.00;30001;983;1872;-69
2021/12/11 02:49:44;;;;;;;;;;;;;;;0.61;91.17;95854.41;30001;983;1877;-69
2021/12/11 02:50:22;;;;;;;;;;;;;;;0.61;91.46;95857.06;30001;983;1881;-70
2021/12/11 02:51:00;;;;;;;;;;;;;;;0.61;91.24;95864.28;30001;983;1877;-68
2021/12/11 02:51:49;;;;;;;;;;;;;;;0.58;91.61;95862.09;30001;982;1881;-68
2021/12/11 02:52:23;;;;;;;;;;;;;;;0.55;91.60;95871.44;30001;982;1855;-69
2021/12/11 02:53:01;;;;;;;;;;;;;;;0.52;91.39;95860.44;30001;982;1873;-69
2021/12/11 02:53:58;;;;;;;;;;;;;;;0.52;91.85;95865.78;30001;982;1877;-68
2021/12/11 02:54:37;;;;;;;;;;;;;;;0.54;91.65;95875.16;30001;982;1877;-67
2021/12/11 02:55:12;;;;;;;;;;;;;;;0.50;91.75;95866.03;30001;983;1864;-68
2021/12/11 02:55:46;;;;;;;;;;;;;;;0.47;91.69;95868.41;30001;983;1872;-68
2021/12/11 02:56:22;;;;;;;;;;;;;;;0.43;91.65;95867.31;30001;983;1877;-67
2021/12/11 02:56:56;;;;;;;;;;;;;;;0.39;91.67;95872.34;30001;983;1881;-65
2021/12/11 02:57:30;;;;;;;;;;;;;;;0.39;91.88;95867.00;30001;983;1877;-65
2021/12/11 02:58:05;;;;;;;;;;;;;;;0.37;92.21;95874.47;30001;983;1868;-67
2021/12/11 02:58:38;;;;;;;;;;;;;;;0.37;92.20;95874.47;30001;983;1868;-64
2021/12/11 02:59:14;;;;;;;;;;;;;;;0.36;92.27;95872.84;30001;982;1869;-67
2021/12/11 02:59:46;;;;;;;;;;;;;;;0.34;92.35;95869.66;30001;982;1868;-66
2021/12/11 03:00:20;;;;;;;;;;;;;;;0.33;92.07;95878.72;30001;982;1882;-67
2021/12/11 03:00:57;;;;;;;;;;;;;;;0.30;92.37;95879.22;30001;982;1877;-67
2021/12/11 03:01:35;;;;;;;;;;;;;;;0.28;92.21;95871.47;30001;982;1869;-67
2021/12/11 03:02:26;;;;;;;;;;;;;;;0.27;92.22;95880.53;30001;982;1869;-67
2021/12/11 03:03:04;;;;;;;;;;;;;;;0.25;92.66;95876.50;30001;983;1868;-68
2021/12/11 03:03:39;;;;;;;;;;;;;;;0.24;92.47;95875.69;30001;983;1868;-67
2021/12/11 03:04:24;;;;;;;;;;;;;;;0.23;92.50;95878.59;30001;983;1881;-55
2021/12/11 03:05:05;;;;;;;;;;;;;;;0.20;92.65;95879.09;30001;983;1864;-67
2021/12/11 03:05:54;;;;;;;;;;;;;;;0.18;92.62;95875.88;30001;983;1873;-69
2021/12/11 03:06:28;;;;;;;;;;;;;;;0.15;92.98;95871.84;30001;983;1877;-70
2021/12/11 03:07:02;;;;;;;;;;;;;;;0.12;93.10;95877.69;30001;982;1869;-67
2021/12/11 03:07:38;;;;;;;;;;;;;;;0.11;93.14;95885.94;30001;982;1869;-69
2021/12/11 03:08:11;;;;;;;;;;;;;;;0.09;92.87;95877.37;30001;982;1882;-68
2021/12/11 03:08:43;;;;;;;;;;;;;;;0.08;93.08;95881.12;30001;982;1877;-68
2021/12/11 03:09:16;;;;;;;;;;;;;;;0.07;93.08;95882.16;30001;982;1882;-68
2021/12/11 03:09:49;;;;;;;;;;;;;;;0.05;93.58;95881.59;30001;982;1878;-69
2021/12/11 03:10:23;;;;;;;;;;;;;;;0.05;93.51;95893.09;30001;983;1881;-54
2021/12/11 03:10:59;;;;;;;;;;;;;;;0.06;93.37;95883.22;30001;983;1877;-68
2021/12/11 03:11:31;;;;;;;;;;;;;;;0.06;93.48;95883.22;30001;983;1881;-68
2021/12/11 03:12:04;;;;;;;;;;;;;;;0.04;93.47;95890.66;30001;983;1864;-67
2021/12/11 03:12:35;;;;;;;;;;;;;;;0.05;93.56;95894.94;30001;983;1872;-67
2021/12/11 03:13:06;;;;;;;;;;;;;;;0.04;93.72;95896.81;30001;983;1864;-68
2021/12/11 03:13:38;;;;;;;;;;;;;;;0.04;93.75;95888.81;30001;983;1873;-67
2021/12/11 03:14:12;;;;;;;;;;;;;;;0.07;93.92;95895.50;30001;982;1877;-67
2021/12/11 03:14:44;;;;;;;;;;;;;;;0.10;94.25;95889.66;30001;982;1869;-67
2021/12/11 03:15:16;;;;;;;;;;;;;;;0.14;94.01;95893.44;30001;966;1895;-66